Time;durP1;ratioP1;P1;durP2;ratioP2;P2;SDS_P1;SDS_P2;PMS_P1;PMS_P2;Temp;Humidity;BMP_temperature;BMP_pressure;BME280_temperature;BME280_humidity;BME280_pressure;Samples;Min_cycle;Max_cycle;Signal;HPM_P1;HPM_P2
2022/10/27 00:00:09;;;;;;;8.13;2.45;;;29.20;35.50;;;;;;5068252;28;20167;-66
2022/10/27 00:02:35;;;;;;;6.70;2.30;;;29.30;35.50;;;;;;5067629;28;20079;-70
2022/10/27 00:05:01;;;;;;;19.30;3.33;;;29.20;35.60;;;;;;5072878;28;20075;-65
2022/10/27 00:07:28;;;;;;;14.23;3.88;;;29.00;36.10;;;;;;5072165;28;20174;-67
2022/10/27 00:09:54;;;;;;;20.50;3.33;;;28.90;36.20;;;;;;5072805;28;20127;-67
2022/10/27 00:12:21;;;;;;;17.15;3.00;;;28.80;36.50;;;;;;5070876;28;20120;-68
2022/10/27 00:14:47;;;;;;;13.95;3.15;;;28.80;36.70;;;;;;5069737;28;20077;-65
2022/10/27 00:17:13;;;;;;;16.38;3.45;;;28.60;36.80;;;;;;5065813;28;20114;-67
2022/10/27 00:19:40;;;;;;;17.10;3.22;;;28.60;36.30;;;;;;5069617;28;20079;-65
2022/10/27 00:22:06;;;;;;;13.43;3.10;;;28.50;36.80;;;;;;5070025;28;20072;-65
2022/10/27 00:24:33;;;;;;;14.38;3.10;;;28.40;36.70;;;;;;5068491;28;20111;-66
2022/10/27 00:26:59;;;;;;;15.00;3.78;;;28.30;36.70;;;;;;5070601;28;20072;-65
2022/10/27 00:29:25;;;;;;;15.77;3.83;;;28.20;36.90;;;;;;5068974;28;20185;-66
2022/10/27 00:31:52;;;;;;;18.48;3.70;;;28.20;37.40;;;;;;5063800;28;20077;-66
2022/10/27 00:34:18;;;;;;;22.30;3.33;;;28.10;37.80;;;;;;5070353;28;20072;-66
2022/10/27 00:36:44;;;;;;;13.40;3.60;;;27.90;38.30;;;;;;5078064;28;20105;-67
2022/10/27 00:39:11;;;;;;;22.33;3.85;;;27.80;38.70;;;;;;5067136;28;20168;-67
2022/10/27 00:41:39;;;;;;;18.42;3.92;;;27.80;39.10;;;;;;5065775;28;20072;-65
2022/10/27 00:44:27;;;;;;;12.85;3.50;;;27.60;39.50;;;;;;5071553;28;20101;-66
2022/10/27 00:46:54;;;;;;;26.25;4.20;;;27.50;40.20;;;;;;5076122;28;20160;-65
2022/10/27 00:49:27;;;;;;;22.15;4.95;;;27.30;40.60;;;;;;5074310;28;20071;-65
2022/10/27 00:51:59;;;;;;;18.75;4.03;;;27.20;40.90;;;;;;5067304;28;20093;-65
2022/10/27 00:54:30;;;;;;;14.63;3.58;;;27.20;40.90;;;;;;5070411;28;20093;-66
2022/10/27 00:56:56;;;;;;;19.73;4.22;;;27.10;41.70;;;;;;5074657;28;20467;-66
2022/10/27 00:59:23;;;;;;;28.23;4.93;;;27.00;42.10;;;;;;5077936;28;20582;-65
2022/10/27 01:01:51;;;;;;;21.55;3.83;;;26.80;42.60;;;;;;5074463;28;20096;-65
2022/10/27 01:04:38;;;;;;;28.45;4.35;;;26.60;42.80;;;;;;5077056;28;20108;-64
2022/10/27 01:07:05;;;;;;;30.95;3.83;;;26.40;43.10;;;;;;5077104;28;20069;-66
2022/10/27 01:09:31;;;;;;;26.65;4.20;;;26.20;43.60;;;;;;5074688;28;20096;-65
2022/10/27 01:11:57;;;;;;;41.15;4.97;;;26.00;44.10;;;;;;5077743;28;20136;-65
2022/10/27 01:14:25;;;;;;;27.95;3.70;;;25.90;44.30;;;;;;5075033;28;20104;-65
2022/10/27 01:17:00;;;;;;;30.92;4.60;;;25.70;44.70;;;;;;5080385;28;20069;-65
2022/10/27 01:19:55;;;;;;;42.90;5.15;;;25.70;44.80;;;;;;5076042;28;20065;-63
2022/10/27 01:22:28;;;;;;;31.70;5.13;;;25.50;44.70;;;;;;5074838;28;20077;-64
2022/10/27 01:25:19;;;;;;;30.13;4.60;;;25.40;45.20;;;;;;5072557;28;20063;-64
2022/10/27 01:27:54;;;;;;;41.40;5.78;;;25.20;45.80;;;;;;5079698;28;20251;-61
2022/10/27 01:30:22;;;;;;;38.85;6.25;;;25.10;46.20;;;;;;5082920;28;20070;-64
2022/10/27 01:33:09;;;;;;;43.95;7.28;;;25.10;46.40;;;;;;5074570;28;20083;-66
2022/10/27 01:35:54;;;;;;;59.15;8.15;;;25.00;47.00;;;;;;5080061;28;20089;-67
2022/10/27 01:38:28;;;;;;;51.72;8.18;;;24.90;47.50;;;;;;5076805;28;20144;-65
2022/10/27 01:41:13;;;;;;;44.58;7.50;;;24.90;48.40;;;;;;5064005;28;20082;-66
2022/10/27 01:43:40;;;;;;;56.17;8.77;;;24.80;49.30;;;;;;5078295;28;20066;-66
2022/10/27 01:46:08;;;;;;;54.85;7.93;;;24.80;50.00;;;;;;5079482;28;20073;-65
2022/10/27 01:48:38;;;;;;;45.42;6.72;;;24.70;50.70;;;;;;5082273;28;20093;-65
2022/10/27 01:51:08;;;;;;;56.65;7.30;;;24.70;51.20;;;;;;5082290;28;20126;-66
2022/10/27 01:53:40;;;;;;;55.15;7.07;;;24.60;51.60;;;;;;5073159;28;20771;-65
2022/10/27 01:56:10;;;;;;;45.50;6.60;;;24.50;52.20;;;;;;5077051;28;20075;-67
2022/10/27 01:58:42;;;;;;;49.78;8.10;;;24.40;52.90;;;;;;5079214;28;20446;-66
2022/10/27 02:01:27;;;;;;;44.92;7.82;;;24.40;53.50;;;;;;5071896;28;20093;-65
2022/10/27 02:04:04;;;;;;;60.33;8.60;;;24.20;54.10;;;;;;5080691;28;20089;-65
2022/10/27 02:06:51;;;;;;;53.97;8.65;;;24.20;54.40;;;;;;5075774;28;20189;-65
2022/10/27 02:09:34;;;;;;;59.30;9.03;;;24.10;55.00;;;;;;5075157;28;20089;-65
2022/10/27 02:12:06;;;;;;;67.18;8.68;;;24.00;55.20;;;;;;5077998;28;20656;-65
2022/10/27 02:14:35;;;;;;;48.35;7.30;;;24.00;55.60;;;;;;5080852;28;20073;-65
2022/10/27 02:17:04;;;;;;;53.55;7.60;;;23.90;55.60;;;;;;5080132;28;20058;-65
2022/10/27 02:19:37;;;;;;;45.88;7.20;;;23.90;56.00;;;;;;5079279;28;20089;-66
2022/10/27 02:22:04;;;;;;;72.18;8.82;;;23.90;56.00;;;;;;5076395;28;20077;-65
2022/10/27 02:24:31;;;;;;;70.43;8.77;;;23.80;55.50;;;;;;5078125;28;20118;-66
2022/10/27 02:27:02;;;;;;;54.67;7.80;;;23.90;55.30;;;;;;5080950;28;20081;-67
2022/10/27 02:29:32;;;;;;;48.65;6.63;;;23.80;55.00;;;;;;5080261;28;20126;-65
2022/10/27 02:32:03;;;;;;;53.15;7.30;;;23.80;55.40;;;;;;5078334;28;20073;-65
2022/10/27 02:34:31;;;;;;;36.05;6.57;;;23.70;55.30;;;;;;5083834;28;20558;-66
2022/10/27 02:36:58;;;;;;;54.58;6.45;;;23.60;55.70;;;;;;5075111;28;20457;-63
2022/10/27 02:39:25;;;;;;;39.97;7.40;;;23.60;56.00;;;;;;5084411;28;20069;-65
2022/10/27 02:41:54;;;;;;;36.55;7.13;;;23.60;56.00;;;;;;5080330;28;20160;-65
2022/10/27 02:44:21;;;;;;;38.63;8.18;;;23.50;56.30;;;;;;5074879;28;20074;-64
2022/10/27 02:46:47;;;;;;;30.38;7.45;;;23.50;56.40;;;;;;5072834;28;20527;-63
2022/10/27 02:49:13;;;;;;;38.67;8.30;;;23.50;56.70;;;;;;5074378;28;20089;-65
2022/10/27 02:51:40;;;;;;;32.63;8.90;;;23.50;56.80;;;;;;5075789;28;20091;-65
2022/10/27 02:54:06;;;;;;;37.13;9.20;;;23.50;56.90;;;;;;5067953;28;20072;-64
2022/10/27 02:56:32;;;;;;;24.00;8.32;;;23.50;57.00;;;;;;5072456;28;20077;-64
2022/10/27 02:58:59;;;;;;;28.65;8.60;;;23.50;57.60;;;;;;5080143;28;20534;-66
2022/10/27 03:01:25;;;;;;;40.65;8.43;;;23.40;57.70;;;;;;5078914;28;20443;-65
2022/10/27 03:03:52;;;;;;;48.42;9.63;;;23.30;57.60;;;;;;5077134;28;20483;-66
2022/10/27 03:06:18;;;;;;;36.90;8.52;;;23.30;57.50;;;;;;5078754;28;20081;-67
2022/10/27 03:08:44;;;;;;;25.42;7.78;;;23.30;58.10;;;;;;5072256;28;20085;-65
2022/10/27 03:11:11;;;;;;;34.35;7.18;;;23.20;58.30;;;;;;5074545;28;20160;-63
2022/10/27 03:13:37;;;;;;;42.85;7.68;;;23.20;58.20;;;;;;5068337;28;20073;-69
2022/10/27 03:16:03;;;;;;;47.63;8.15;;;23.20;58.30;;;;;;5070751;28;20131;-66
2022/10/27 03:18:30;;;;;;;29.45;7.70;;;23.20;58.50;;;;;;5068499;28;20080;-68
2022/10/27 03:20:56;;;;;;;36.22;8.00;;;23.10;58.30;;;;;;5070922;28;20073;-65
2022/10/27 03:23:23;;;;;;;27.80;7.38;;;23.00;58.70;;;;;;5070817;28;20617;-66
2022/10/27 03:25:49;;;;;;;38.20;7.30;;;23.00;58.80;;;;;;5069265;28;20130;-64
2022/10/27 03:28:15;;;;;;;30.00;6.47;;;22.90;59.00;;;;;;5071917;28;20542;-66
2022/10/27 03:30:42;;;;;;;45.10;7.50;;;22.80;59.70;;;;;;5075827;28;20072;-64
2022/10/27 03:33:08;;;;;;;35.83;7.35;;;22.70;59.80;;;;;;5070709;28;20093;-62
2022/10/27 03:35:34;;;;;;;35.45;7.43;;;22.70;59.90;;;;;;5070866;28;20207;-65
2022/10/27 03:38:01;;;;;;;33.03;6.10;;;22.70;60.90;;;;;;5069718;28;20105;-65
2022/10/27 03:40:29;;;;;;;27.05;6.55;;;22.60;60.20;;;;;;5070703;28;20168;-66
2022/10/27 03:42:58;;;;;;;25.25;6.38;;;22.50;60.50;;;;;;5071640;28;20077;-63
2022/10/27 03:45:28;;;;;;;25.63;5.75;;;22.50;60.70;;;;;;5070527;28;20111;-65
2022/10/27 03:48:05;;;;;;;31.10;6.60;;;22.40;60.10;;;;;;5069145;28;20526;-67
2022/10/27 03:50:32;;;;;;;25.70;6.18;;;22.40;59.60;;;;;;5069826;28;20080;-67
2022/10/27 03:52:59;;;;;;;31.90;7.28;;;22.40;59.70;;;;;;5068777;28;20114;-64
2022/10/27 03:55:26;;;;;;;27.08;7.07;;;22.40;60.10;;;;;;5070518;28;20152;-65
2022/10/27 03:57:53;;;;;;;33.38;6.88;;;22.30;60.80;;;;;;5069632;28;20104;-67
2022/10/27 04:00:20;;;;;;;34.40;7.32;;;22.30;61.00;;;;;;5072236;28;20093;-66
2022/10/27 04:02:46;;;;;;;36.47;8.00;;;22.30;61.50;;;;;;5069411;28;20122;-66
2022/10/27 04:05:13;;;;;;;30.95;8.20;;;22.20;61.30;;;;;;5069905;28;20077;-65
2022/10/27 04:07:39;;;;;;;27.40;7.28;;;22.10;61.20;;;;;;5071291;28;20486;-66
2022/10/27 04:10:06;;;;;;;34.58;9.15;;;22.10;62.10;;;;;;5069423;28;20084;-66
2022/10/27 04:12:32;;;;;;;30.17;8.23;;;22.10;63.00;;;;;;5068821;28;20095;-65
2022/10/27 04:14:58;;;;;;;52.78;10.48;;;22.00;63.10;;;;;;5070898;28;20073;-66
2022/10/27 04:17:25;;;;;;;44.67;12.63;;;21.90;63.10;;;;;;5069126;28;20553;-67
2022/10/27 04:19:51;;;;;;;52.15;17.38;;;21.80;63.30;;;;;;5071209;28;20089;-65
2022/10/27 04:22:17;;;;;;;66.35;14.90;;;21.80;63.50;;;;;;5070620;28;20087;-69
2022/10/27 04:24:44;;;;;;;52.17;13.13;;;21.70;64.20;;;;;;5072261;28;20069;-63
2022/10/27 04:27:10;;;;;;;63.35;13.35;;;21.70;64.00;;;;;;5068918;28;20093;-70
2022/10/27 04:29:37;;;;;;;39.38;12.77;;;21.60;64.60;;;;;;5067909;28;20077;-65
2022/10/27 04:32:03;;;;;;;58.97;14.50;;;21.60;65.00;;;;;;5068500;28;20592;-65
2022/10/27 04:34:29;;;;;;;50.22;11.95;;;21.50;64.50;;;;;;5068460;28;20130;-63
2022/10/27 04:36:56;;;;;;;41.22;12.15;;;21.50;65.20;;;;;;5068517;28;20112;-66
2022/10/27 04:39:22;;;;;;;57.13;13.38;;;21.40;65.10;;;;;;5067636;28;20080;-64
2022/10/27 04:41:49;;;;;;;49.75;12.30;;;21.30;65.80;;;;;;5072403;28;20410;-65
2022/10/27 04:44:15;;;;;;;54.00;11.48;;;21.20;65.20;;;;;;5068615;28;20159;-64
2022/10/27 04:46:42;;;;;;;56.67;10.60;;;21.20;65.70;;;;;;5069055;28;20181;-66
2022/10/27 04:49:08;;;;;;;46.28;10.25;;;21.20;64.70;;;;;;5067345;28;21769;-65
2022/10/27 04:51:34;;;;;;;35.03;8.95;;;21.10;63.60;;;;;;5066270;28;20439;-64
2022/10/27 04:54:04;;;;;;;31.23;7.75;;;21.20;62.90;;;;;;5073778;28;20496;-66
2022/10/27 04:56:30;;;;;;;33.35;7.30;;;21.20;60.90;;;;;;5070692;28;20482;-64
2022/10/27 04:58:57;;;;;;;32.72;7.10;;;21.10;60.30;;;;;;5068665;28;20146;-65
2022/10/27 05:01:23;;;;;;;28.55;6.35;;;21.10;60.10;;;;;;5068543;28;20134;-65
2022/10/27 05:03:50;;;;;;;36.90;7.05;;;21.10;59.80;;;;;;5070702;28;20077;-65
2022/10/27 05:06:17;;;;;;;35.53;6.57;;;21.00;59.70;;;;;;5068420;28;20068;-66
2022/10/27 05:08:43;;;;;;;26.52;5.80;;;21.00;59.60;;;;;;5071708;28;20095;-65
2022/10/27 05:11:09;;;;;;;26.65;5.55;;;20.90;59.40;;;;;;5071596;28;20065;-66
2022/10/27 05:13:36;;;;;;;24.65;5.45;;;20.90;58.90;;;;;;5072922;28;20096;-66
2022/10/27 05:16:03;;;;;;;34.10;6.05;;;20.90;58.60;;;;;;5067823;28;20088;-64
2022/10/27 05:18:30;;;;;;;20.38;4.18;;;20.90;58.20;;;;;;5071641;28;20086;-65
2022/10/27 05:20:57;;;;;;;20.15;4.63;;;20.90;58.60;;;;;;5073612;28;20084;-65
2022/10/27 05:23:23;;;;;;;19.55;4.13;;;20.80;58.70;;;;;;5074270;28;20084;-65
2022/10/27 05:25:51;;;;;;;14.57;3.50;;;20.80;58.10;;;;;;5072838;28;20088;-63
2022/10/27 05:28:18;;;;;;;16.90;4.40;;;20.70;58.50;;;;;;5073766;28;20088;-66
2022/10/27 05:30:44;;;;;;;17.75;3.65;;;20.70;58.00;;;;;;5072118;28;20453;-64
2022/10/27 05:33:10;;;;;;;19.42;5.20;;;20.70;57.60;;;;;;5072043;28;20072;-65
2022/10/27 05:35:37;;;;;;;15.82;4.10;;;20.70;57.40;;;;;;5072384;28;20544;-66
2022/10/27 05:38:03;;;;;;;19.35;4.30;;;20.70;57.00;;;;;;5071648;28;20127;-64
2022/10/27 05:40:35;;;;;;;18.02;4.07;;;20.70;57.70;;;;;;5073347;28;20077;-65
2022/10/27 05:43:03;;;;;;;17.80;3.65;;;20.60;57.40;;;;;;5075630;28;20100;-66
2022/10/27 05:45:30;;;;;;;10.68;2.72;;;20.60;57.30;;;;;;5072167;28;20462;-63
2022/10/27 05:48:04;;;;;;;11.30;2.65;;;20.70;56.60;;;;;;5074258;28;20085;-64
2022/10/27 05:50:31;;;;;;;14.82;3.53;;;20.70;56.20;;;;;;5072859;28;20065;-63
2022/10/27 05:55:34;;;;;;;220.73;192.20;;;20.70;56.10;;;;;;5079064;22;20151;-61
2022/10/27 05:58:02;;;;;;;17.33;4.03;;;20.60;56.30;;;;;;5079176;28;20069;-60
2022/10/27 06:00:31;;;;;;;11.90;3.30;;;20.60;56.30;;;;;;5078453;28;20084;-62
2022/10/27 06:02:59;;;;;;;15.75;3.00;;;20.60;55.80;;;;;;5082428;28;20110;-63
2022/10/27 06:05:27;;;;;;;11.55;3.22;;;20.60;55.10;;;;;;5082215;28;20544;-64
2022/10/27 06:07:54;;;;;;;18.40;3.10;;;20.70;54.90;;;;;;5076906;28;20081;-63
2022/10/27 06:10:21;;;;;;;13.80;3.47;;;20.80;54.80;;;;;;5079281;28;20410;-60
2022/10/27 06:12:47;;;;;;;16.83;3.50;;;20.80;54.50;;;;;;5082055;28;20482;-59
2022/10/27 06:15:14;;;;;;;14.02;3.10;;;20.90;54.30;;;;;;5092352;28;20073;-62
2022/10/27 06:17:41;;;;;;;13.52;2.75;;;21.00;54.40;;;;;;5076732;28;20560;-59
2022/10/27 06:20:08;;;;;;;13.82;3.60;;;21.00;54.40;;;;;;5076354;28;20100;-63
2022/10/27 06:22:34;;;;;;;12.90;3.35;;;21.00;54.70;;;;;;5080024;28;20073;-64
2022/10/27 06:25:01;;;;;;;14.25;3.45;;;21.00;54.40;;;;;;5081619;28;20172;-61
2022/10/27 06:27:29;;;;;;;16.23;3.72;;;21.00;54.40;;;;;;5074451;28;20081;-64
2022/10/27 06:29:55;;;;;;;13.25;3.67;;;21.10;54.40;;;;;;5075029;28;20148;-57
2022/10/27 06:32:22;;;;;;;12.63;3.38;;;21.00;54.20;;;;;;5074348;28;20083;-58
2022/10/27 06:34:48;;;;;;;17.48;3.63;;;21.00;54.50;;;;;;5074151;28;20077;-63
2022/10/27 06:37:14;;;;;;;18.60;3.40;;;21.10;54.10;;;;;;5076136;28;20081;-65
2022/10/27 06:39:41;;;;;;;13.93;3.60;;;21.00;54.10;;;;;;5088023;28;20793;-60
2022/10/27 06:42:08;;;;;;;12.00;3.00;;;21.00;53.90;;;;;;5084051;28;20149;-61
2022/10/27 06:44:34;;;;;;;16.45;3.50;;;21.10;53.90;;;;;;5086314;28;20549;-60
2022/10/27 06:47:00;;;;;;;14.60;3.35;;;21.10;54.10;;;;;;5085112;28;20517;-63
2022/10/27 06:49:27;;;;;;;11.02;3.05;;;21.00;54.00;;;;;;5082803;28;20085;-61
2022/10/27 06:51:54;;;;;;;15.23;3.13;;;21.00;54.20;;;;;;5080922;28;20096;-60
2022/10/27 06:54:20;;;;;;;12.77;3.30;;;21.00;54.10;;;;;;5075667;28;20158;-58
2022/10/27 06:56:47;;;;;;;15.40;2.97;;;21.00;54.50;;;;;;5079050;28;20089;-61
2022/10/27 06:59:13;;;;;;;16.92;3.40;;;21.00;54.50;;;;;;5075664;28;20160;-59
2022/10/27 07:01:39;;;;;;;18.23;3.40;;;20.90;54.70;;;;;;5078211;28;20097;-59
2022/10/27 07:04:06;;;;;;;14.85;3.45;;;20.80;54.60;;;;;;5080311;28;20076;-62
2022/10/27 07:06:32;;;;;;;12.65;3.05;;;20.80;54.60;;;;;;5080646;28;20099;-60
2022/10/27 07:08:58;;;;;;;14.05;2.83;;;20.80;54.80;;;;;;5076937;28;20553;-58
2022/10/27 07:11:27;;;;;;;14.30;3.53;;;20.80;55.00;;;;;;5076314;28;20118;-62
2022/10/27 07:13:54;;;;;;;11.80;2.90;;;20.70;54.90;;;;;;5077086;28;20069;-60
2022/10/27 07:16:21;;;;;;;15.45;3.42;;;20.70;55.10;;;;;;5076834;28;20076;-58
2022/10/27 07:18:48;;;;;;;15.10;3.33;;;20.70;55.00;;;;;;5088015;28;20073;-58
2022/10/27 07:21:15;;;;;;;16.48;3.50;;;20.60;54.80;;;;;;5074881;28;20077;-62
2022/10/27 07:23:41;;;;;;;13.02;2.88;;;20.60;55.30;;;;;;5081893;28;20704;-62
2022/10/27 07:26:08;;;;;;;14.00;3.33;;;20.60;54.50;;;;;;5081587;28;20064;-58
2022/10/27 07:28:34;;;;;;;11.95;2.95;;;20.50;54.70;;;;;;5075317;28;20177;-63
2022/10/27 07:31:01;;;;;;;7.68;2.70;;;20.50;54.10;;;;;;5072656;28;20584;-60
2022/10/27 07:33:27;;;;;;;9.20;2.95;;;20.50;54.00;;;;;;5076720;28;20089;-64
2022/10/27 07:35:53;;;;;;;11.02;3.20;;;20.50;54.00;;;;;;5076490;28;20444;-60
2022/10/27 07:38:20;;;;;;;17.35;3.28;;;20.50;53.50;;;;;;5081729;28;20131;-58
2022/10/27 07:40:47;;;;;;;11.80;2.92;;;20.50;53.50;;;;;;5073526;28;20077;-58
2022/10/27 07:43:13;;;;;;;15.23;3.38;;;20.50;53.30;;;;;;5077864;28;20069;-61
2022/10/27 07:45:41;;;;;;;9.95;3.10;;;20.50;53.20;;;;;;5086421;28;20163;-63
2022/10/27 07:48:17;;;;;;;20.23;3.17;;;20.60;53.10;;;;;;5078143;28;20103;-58
2022/10/27 07:50:44;;;;;;;13.82;2.92;;;20.50;53.40;;;;;;5082882;28;20573;-63
2022/10/27 07:53:14;;;;;;;11.40;2.80;;;20.50;53.90;;;;;;5075215;28;20065;-58
2022/10/27 07:55:40;;;;;;;11.27;2.65;;;20.40;53.50;;;;;;5080560;28;20105;-62
2022/10/27 07:58:10;;;;;;;9.90;2.58;;;20.40;53.70;;;;;;5088403;28;20073;-63
2022/10/27 08:00:40;;;;;;;12.93;2.60;;;20.30;53.90;;;;;;5085832;28;20115;-60
2022/10/27 08:03:09;;;;;;;10.88;2.45;;;20.20;54.20;;;;;;5074621;28;20130;-59
2022/10/27 08:05:36;;;;;;;16.70;2.50;;;20.20;54.10;;;;;;5074204;28;20088;-58
2022/10/27 08:08:04;;;;;;;13.18;2.30;;;20.20;53.70;;;;;;5080169;28;20155;-62
2022/10/27 08:10:33;;;;;;;11.88;2.35;;;20.20;54.20;;;;;;5082091;28;20532;-62
2022/10/27 08:15:37;;;;;;;8.40;2.70;;;20.00;54.70;;;;;;5308102;22;20662;-58
2022/10/27 08:18:04;;;;;;;16.92;3.40;;;20.00;54.80;;;;;;5053917;28;20430;-57
2022/10/27 08:20:43;;;;;;;13.63;2.60;;;20.00;54.80;;;;;;5054889;28;20109;-59
2022/10/27 08:23:14;;;;;;;10.23;3.15;;;19.90;55.10;;;;;;5055771;28;20130;-61
2022/10/27 08:25:41;;;;;;;11.95;2.70;;;19.90;55.30;;;;;;5054381;28;20266;-59
2022/10/27 08:28:12;;;;;;;12.25;2.60;;;19.80;55.30;;;;;;5061712;28;20092;-62
2022/10/27 08:30:39;;;;;;;9.93;2.65;;;19.80;55.20;;;;;;5057843;28;20070;-59
2022/10/27 08:33:06;;;;;;;9.60;2.63;;;19.80;55.20;;;;;;5055498;28;20073;-59
2022/10/27 08:35:33;;;;;;;12.30;2.90;;;19.70;55.90;;;;;;5057593;28;20085;-63
2022/10/27 08:38:06;;;;;;;10.68;3.00;;;19.70;55.40;;;;;;5051929;28;20081;-57
2022/10/27 08:41:03;;;;;;;14.68;2.53;;;19.70;55.20;;;;;;5051939;28;20089;-57
2022/10/27 08:44:01;;;;;;;9.15;2.63;;;19.60;55.40;;;;;;5053323;28;20077;-58
2022/10/27 08:46:49;;;;;;;9.30;2.60;;;19.60;55.90;;;;;;5054320;28;20074;-58
2022/10/27 08:49:41;;;;;;;19.80;3.15;;;19.60;55.40;;;;;;5054904;28;20104;-59
2022/10/27 08:52:32;;;;;;;10.63;2.70;;;19.60;54.50;;;;;;5053366;28;20153;-58
2022/10/27 08:55:11;;;;;;;14.82;2.60;;;19.60;54.70;;;;;;5052738;28;20077;-59
2022/10/27 08:57:45;;;;;;;11.57;2.42;;;19.60;54.10;;;;;;5052730;28;20093;-58
2022/10/27 09:00:12;;;;;;;8.27;2.13;;;19.60;53.60;;;;;;5054151;28;20108;-62
2022/10/27 09:02:45;;;;;;;3.67;1.65;;;19.60;53.20;;;;;;5055028;28;20160;-62
2022/10/27 09:05:32;;;;;;;9.52;3.03;;;19.60;52.90;;;;;;5055469;28;20186;-57
2022/10/27 09:08:24;;;;;;;7.85;2.15;;;19.70;52.30;;;;;;5053332;28;20172;-60
2022/10/27 09:11:09;;;;;;;7.28;2.00;;;19.80;51.90;;;;;;5052430;28;20085;-57
2022/10/27 09:13:55;;;;;;;4.95;1.58;;;19.80;51.70;;;;;;5051427;28;20069;-61
2022/10/27 09:16:51;;;;;;;7.65;1.88;;;19.80;51.50;;;;;;5034163;28;20121;-59
2022/10/27 09:19:28;;;;;;;6.18;1.85;;;19.80;51.50;;;;;;5026589;28;20599;-58
2022/10/27 09:21:54;;;;;;;;;;;19.80;51.20;;;;;;5039155;28;20417;-58
2022/10/27 09:24:25;;;;;;;6.93;2.10;;;19.90;51.10;;;;;;5033594;28;20040;-57
2022/10/27 09:26:53;;;;;;;7.22;2.47;;;19.90;50.90;;;;;;5039628;28;20074;-58
2022/10/27 09:29:22;;;;;;;8.30;2.00;;;19.90;50.90;;;;;;5031376;28;20086;-57
2022/10/27 09:31:52;;;;;;;7.05;2.28;;;19.90;50.80;;;;;;5033035;28;20136;-59
2022/10/27 09:34:30;;;;;;;8.77;2.38;;;19.90;50.70;;;;;;5032632;28;20066;-58
2022/10/27 09:36:56;;;;;;;6.05;1.92;;;19.90;50.70;;;;;;5035405;28;20092;-64
2022/10/27 09:39:23;;;;;;;12.38;2.63;;;19.80;50.70;;;;;;5029747;28;20089;-57
2022/10/27 09:41:51;;;;;;;7.53;2.40;;;19.80;50.70;;;;;;5033005;28;20181;-58
2022/10/27 09:44:28;;;;;;;11.90;2.72;;;19.80;50.70;;;;;;5035215;28;20467;-59
2022/10/27 09:46:56;;;;;;;9.50;2.42;;;19.80;50.30;;;;;;5044789;28;20452;-61
2022/10/27 09:49:38;;;;;;;8.60;2.75;;;19.80;50.00;;;;;;5034555;28;20502;-57
2022/10/27 09:52:25;;;;;;;9.00;3.00;;;19.80;49.90;;;;;;5039585;28;20078;-58
2022/10/27 09:54:53;;;;;;;8.45;3.10;;;19.80;49.60;;;;;;5036233;28;20078;-58
2022/10/27 09:57:26;;;;;;;11.88;3.50;;;19.80;49.70;;;;;;5038088;28;20074;-58
2022/10/27 09:59:58;;;;;;;8.57;3.22;;;19.80;49.80;;;;;;5033076;28;20090;-58
2022/10/27 10:02:29;;;;;;;12.90;3.00;;;19.80;49.70;;;;;;5038143;28;20078;-63
2022/10/27 10:04:56;;;;;;;9.48;3.03;;;19.80;49.50;;;;;;5040474;28;20090;-58
2022/10/27 10:07:32;;;;;;;9.60;2.67;;;19.80;49.50;;;;;;5040973;28;20419;-61
2022/10/27 10:10:06;;;;;;;8.25;2.90;;;19.70;49.40;;;;;;5036169;28;20093;-60
2022/10/27 10:12:33;;;;;;;7.63;3.10;;;19.70;49.00;;;;;;5040629;28;20069;-59
2022/10/27 10:15:18;;;;;;;10.60;3.30;;;19.70;49.10;;;;;;5038497;28;20575;-60
2022/10/27 10:17:54;;;;;;;11.45;2.72;;;19.70;49.40;;;;;;5036858;28;20557;-61
2022/10/27 10:20:34;;;;;;;9.73;2.28;;;19.70;49.30;;;;;;5036166;28;20557;-57
2022/10/27 10:23:04;;;;;;;13.90;2.35;;;19.60;49.40;;;;;;5035435;28;20526;-58
2022/10/27 10:25:32;;;;;;;6.05;1.88;;;19.60;49.60;;;;;;5038613;28;20078;-64
2022/10/27 10:28:05;;;;;;;7.55;1.73;;;19.60;49.80;;;;;;5041935;28;20226;-62
2022/10/27 10:30:38;;;;;;;5.88;1.95;;;19.50;50.00;;;;;;5039722;28;20069;-59
2022/10/27 10:33:13;;;;;;;8.50;1.88;;;19.50;50.50;;;;;;5037921;28;20074;-64
2022/10/27 10:35:48;;;;;;;8.07;2.47;;;19.40;50.80;;;;;;5037406;28;20126;-60
2022/10/27 10:38:38;;;;;;;7.15;1.83;;;19.40;51.20;;;;;;5034545;28;20080;-58
2022/10/27 10:41:12;;;;;;;9.20;2.25;;;19.40;51.80;;;;;;5036271;28;20181;-57
2022/10/27 10:43:39;;;;;;;9.38;2.13;;;19.30;51.90;;;;;;5037827;28;20073;-59
2022/10/27 10:46:15;;;;;;;7.35;1.85;;;19.30;52.30;;;;;;5034209;28;20161;-58
2022/10/27 10:48:46;;;;;;;9.48;2.22;;;19.20;52.50;;;;;;5038792;28;20193;-65
2022/10/27 10:51:22;;;;;;;11.18;2.13;;;19.20;52.70;;;;;;5035730;28;20082;-63
2022/10/27 10:53:51;;;;;;;7.40;2.13;;;19.10;53.10;;;;;;5037530;28;20151;-57
2022/10/27 10:56:32;;;;;;;6.32;2.22;;;19.10;52.90;;;;;;5039155;28;20085;-62
2022/10/27 10:59:10;;;;;;;9.23;2.10;;;19.10;53.40;;;;;;5039229;28;20147;-60
2022/10/27 11:01:50;;;;;;;10.65;2.55;;;18.90;53.60;;;;;;5040133;28;20073;-63
2022/10/27 11:04:25;;;;;;;8.02;2.30;;;18.80;54.20;;;;;;5040790;28;20091;-64
2022/10/27 11:06:58;;;;;;;10.13;2.40;;;18.80;54.20;;;;;;5037877;28;20077;-58
2022/10/27 11:09:36;;;;;;;10.30;2.10;;;18.90;54.10;;;;;;5036944;28;20118;-63
2022/10/27 11:12:04;;;;;;;11.88;2.72;;;18.70;54.70;;;;;;5037056;28;20096;-61
2022/10/27 11:14:32;;;;;;;8.85;2.40;;;18.70;54.30;;;;;;5038777;28;20631;-58
2022/10/27 11:17:03;;;;;;;9.30;2.53;;;18.70;54.40;;;;;;5035166;28;20454;-57
2022/10/27 11:19:34;;;;;;;15.18;2.90;;;18.70;54.70;;;;;;5034490;28;20171;-63
2022/10/27 11:22:09;;;;;;;9.00;2.30;;;18.60;54.60;;;;;;5035777;28;20080;-62
2022/10/27 11:24:44;;;;;;;14.25;2.90;;;18.50;54.90;;;;;;5035424;28;20534;-62
2022/10/27 11:27:16;;;;;;;14.50;3.00;;;18.50;55.40;;;;;;5035167;28;20480;-62
2022/10/27 11:29:49;;;;;;;9.85;3.00;;;18.50;55.60;;;;;;5036763;28;20450;-63
2022/10/27 11:32:32;;;;;;;15.40;2.67;;;18.50;55.70;;;;;;5036294;28;20070;-64
2022/10/27 11:35:08;;;;;;;11.05;2.53;;;18.40;55.80;;;;;;5035681;28;20091;-62
2022/10/27 11:37:57;;;;;;;9.38;2.35;;;18.30;56.40;;;;;;5037814;28;20080;-63
2022/10/27 11:40:57;;;;;;;14.55;2.53;;;18.20;56.70;;;;;;5040018;28;20089;-58
2022/10/27 11:43:38;;;;;;;15.18;3.10;;;18.20;56.80;;;;;;5040125;28;20522;-63
2022/10/27 11:46:25;;;;;;;8.65;2.58;;;18.10;56.40;;;;;;5040375;28;20082;-63
2022/10/27 11:49:00;;;;;;;11.07;2.53;;;18.10;56.80;;;;;;5037775;28;20086;-64
2022/10/27 11:51:39;;;;;;;9.95;2.38;;;18.00;56.70;;;;;;5042018;28;20498;-63
2022/10/27 11:54:06;;;;;;;12.25;2.45;;;18.00;56.40;;;;;;5033749;28;20073;-63
2022/10/27 11:57:04;;;;;;;9.23;2.25;;;18.00;56.10;;;;;;5034739;28;20073;-59
2022/10/27 11:59:55;;;;;;;7.15;2.05;;;18.00;55.90;;;;;;5030988;28;20094;-63
2022/10/27 12:02:40;;;;;;;11.57;2.45;;;18.10;56.10;;;;;;5035471;28;20069;-59
2022/10/27 12:05:44;;;;;;;8.23;2.03;;;18.00;56.00;;;;;;5039352;28;20069;-63
2022/10/27 12:08:24;;;;;;;7.38;2.33;;;17.90;55.90;;;;;;5035784;28;20089;-58
2022/10/27 12:10:53;;;;;;;13.73;2.78;;;17.90;56.10;;;;;;5044526;28;20088;-64
2022/10/27 12:13:39;;;;;;;12.73;2.53;;;17.90;56.00;;;;;;5033551;28;20481;-63
2022/10/27 12:16:20;;;;;;;7.97;2.63;;;17.90;56.20;;;;;;5033558;28;20120;-57
2022/10/27 12:19:02;;;;;;;9.05;2.33;;;17.80;55.40;;;;;;5033176;28;20121;-59
2022/10/27 12:21:54;;;;;;;9.13;2.50;;;17.80;55.20;;;;;;5031073;28;20074;-59
2022/10/27 12:24:32;;;;;;;8.77;2.83;;;17.80;55.40;;;;;;5033939;28;20092;-64
2022/10/27 12:27:24;;;;;;;8.55;2.53;;;17.80;55.50;;;;;;5033287;28;20084;-62
2022/10/27 12:29:55;;;;;;;12.07;2.40;;;17.80;55.50;;;;;;5036973;28;20435;-61
2022/10/27 12:32:32;;;;;;;10.27;2.67;;;17.80;55.60;;;;;;5037821;28;20066;-61
2022/10/27 12:35:26;;;;;;;9.80;2.80;;;17.80;56.00;;;;;;5034225;28;20499;-61
2022/10/27 12:38:16;;;;;;;11.52;2.70;;;17.70;55.90;;;;;;5036241;28;20108;-64
2022/10/27 12:40:45;;;;;;;16.55;3.00;;;17.50;56.20;;;;;;5033732;28;20069;-62
2022/10/27 12:43:40;;;;;;;22.80;2.90;;;17.50;56.60;;;;;;5036891;28;20074;-63
2022/10/27 12:46:28;;;;;;;16.27;2.55;;;17.50;56.80;;;;;;5032020;28;20099;-63
2022/10/27 12:49:10;;;;;;;10.48;2.25;;;17.50;56.30;;;;;;5034842;28;20532;-63
2022/10/27 12:51:46;;;;;;;13.45;2.40;;;17.50;56.10;;;;;;5033352;28;20069;-62
2022/10/27 12:54:43;;;;;;;10.00;2.47;;;17.50;56.50;;;;;;5035314;28;20522;-64
2022/10/27 12:57:45;;;;;;;16.50;2.70;;;17.50;56.70;;;;;;5034531;28;20535;-57
2022/10/27 13:00:19;;;;;;;19.55;2.70;;;17.40;56.80;;;;;;5009203;28;20093;-62
2022/10/27 13:03:01;;;;;;;12.77;2.63;;;17.40;57.10;;;;;;5037398;28;20085;-62
2022/10/27 13:05:47;;;;;;;12.77;2.80;;;17.40;57.50;;;;;;5037261;28;20073;-59